Time;durP1;ratioP1;P1;durP2;ratioP2;P2;SDS_P1;SDS_P2;PMS_P1;PMS_P2;Temp;Humidity;BMP_temperature;BMP_pressure;BME280_temperature;BME280_humidity;BME280_pressure;Samples;Min_cycle;Max_cycle;Signal;HPM_P1;HPM_P2
2023/05/23 02:52:48;;;;;;;23.08;11.77;;;;;;;;;;6335242;22;20204;-92
2023/05/23 02:55:53;;;;;;;23.73;13.25;;;;;;;;;;6332655;22;20175;-92
2023/05/23 02:58:58;;;;;;;19.52;11.82;;;;;;;;;;6342197;22;20210;-92
2023/05/23 03:02:03;;;;;;;23.00;11.65;;;;;;;;;;6335070;22;20192;-92
2023/05/23 03:05:09;;;;;;;19.42;11.10;;;;;;;;;;6334928;22;20164;-92
2023/05/23 03:08:16;;;;;;;19.80;10.57;;;;;;;;;;6334796;22;20169;-92
2023/05/23 03:11:22;;;;;;;19.30;10.73;;;;;;;;;;6334462;22;20169;-91
2023/05/23 03:14:26;;;;;;;20.17;10.80;;;;;;;;;;6336479;22;20165;-93
2023/05/23 03:17:35;;;;;;;21.50;10.65;;;;;;;;;;6337121;22;20168;-92
2023/05/23 03:20:41;;;;;;;19.17;10.50;;;;;;;;;;6335424;22;20207;-93
2023/05/23 03:23:47;;;;;;;19.20;10.50;;;;;;;;;;6334353;22;20665;-93
2023/05/23 03:26:56;;;;;;;18.02;10.30;;;;;;;;;;6335101;22;20168;-90
2023/05/23 03:30:02;;;;;;;23.52;11.15;;;;;;;;;;6336419;22;20238;-92
2023/05/23 03:33:06;;;;;;;17.75;10.85;;;;;;;;;;6337341;22;20248;-92
2023/05/23 03:36:13;;;;;;;25.13;11.63;;;;;;;;;;6336379;22;20161;-92
2023/05/23 03:39:19;;;;;;;21.88;12.80;;;;;;;;;;6333781;22;20207;-91
2023/05/23 03:42:24;;;;;;;26.90;12.00;;;;;;;;;;6335786;22;20192;-93
2023/05/23 03:45:30;;;;;;;20.75;12.25;;;;;;;;;;6336695;22;20211;-93
2023/05/23 03:48:36;;;;;;;20.55;11.68;;;;;;;;;;6336640;22;20164;-93
2023/05/23 03:51:41;;;;;;;18.02;11.52;;;;;;;;;;6336974;22;20188;-93
2023/05/23 03:54:50;;;;;;;25.23;12.40;;;;;;;;;;6336665;22;20206;-93
2023/05/23 03:57:55;;;;;;;21.40;11.48;;;;;;;;;;6336782;22;20161;-92
2023/05/23 04:01:11;;;;;;;17.88;10.85;;;;;;;;;;6335516;22;20192;-93
2023/05/23 04:04:17;;;;;;;19.02;11.23;;;;;;;;;;6335465;22;20172;-92
2023/05/23 04:07:25;;;;;;;18.30;11.13;;;;;;;;;;6334563;22;20184;-93
2023/05/23 04:10:33;;;;;;;20.30;11.70;;;;;;;;;;6339531;22;20207;-93
2023/05/23 04:13:41;;;;;;;24.45;12.75;;;;;;;;;;6337980;22;20240;-92
2023/05/23 04:17:31;;;;;;;19.73;10.93;;;;;;;;;;6344021;22;20169;-94
2023/05/23 04:20:37;;;;;;;20.10;11.82;;;;;;;;;;6337612;22;20183;-93
2023/05/23 04:23:43;;;;;;;23.20;12.27;;;;;;;;;;6337527;22;20153;-91
2023/05/23 04:26:51;;;;;;;22.00;11.25;;;;;;;;;;6338713;22;20239;-94
2023/05/23 04:29:59;;;;;;;19.10;11.20;;;;;;;;;;6341652;22;20165;-93
2023/05/23 04:33:05;;;;;;;20.30;11.25;;;;;;;;;;6340036;22;20177;-93
2023/05/23 04:36:10;;;;;;;20.20;11.02;;;;;;;;;;6337302;22;20160;-92
2023/05/23 04:39:18;;;;;;;18.10;11.02;;;;;;;;;;6339951;22;20192;-92
2023/05/23 04:42:47;;;;;;;18.17;12.07;;;;;;;;;;6340672;22;20274;-93
2023/05/23 04:46:26;;;;;;;23.25;13.40;;;;;;;;;;6357067;22;20160;-92
2023/05/23 04:49:45;;;;;;;24.60;12.55;;;;;;;;;;6337507;22;20207;-93
2023/05/23 04:52:51;;;;;;;23.55;13.68;;;;;;;;;;6339212;22;20191;-94
2023/05/23 04:55:56;;;;;;;22.60;13.55;;;;;;;;;;6339132;22;20187;-93
2023/05/23 04:59:04;;;;;;;24.85;13.10;;;;;;;;;;6338743;22;20168;-93
2023/05/23 05:02:09;;;;;;;21.40;11.48;;;;;;;;;;6338018;22;20188;-94
2023/05/23 05:05:16;;;;;;;20.02;11.82;;;;;;;;;;6337587;22;20219;-93
2023/05/23 05:08:22;;;;;;;19.13;11.35;;;;;;;;;;6336342;22;20168;-94
2023/05/23 05:11:36;;;;;;;28.30;12.68;;;;;;;;;;6340901;22;20213;-93
2023/05/23 23:03:16;;;;;;;5.90;3.80;;;;;;;;;;6308280;22;20281;-91
2023/05/23 23:06:21;;;;;;;7.50;4.38;;;;;;;;;;6322762;22;20622;-92
2023/05/23 23:09:26;;;;;;;11.02;4.25;;;;;;;;;;6306183;22;20196;-92
2023/05/23 23:12:32;;;;;;;8.85;4.88;;;;;;;;;;6302062;22;20620;-93
2023/05/23 23:15:37;;;;;;;10.52;3.90;;;;;;;;;;6303785;22;20212;-92
2023/05/23 23:19:16;;;;;;;9.80;4.63;;;;;;;;;;6304239;22;21047;-89
2023/05/23 23:22:24;;;;;;;7.88;4.57;;;;;;;;;;6324734;22;20180;-91
2023/05/23 23:25:29;;;;;;;7.32;3.90;;;;;;;;;;6324070;22;20528;-91
2023/05/23 23:28:34;;;;;;;7.00;4.22;;;;;;;;;;6306698;22;20177;-92
2023/05/23 23:31:39;;;;;;;8.07;4.03;;;;;;;;;;6324925;22;20594;-91
2023/05/23 23:34:45;;;;;;;6.47;4.10;;;;;;;;;;6308572;22;20211;-92
2023/05/23 23:37:52;;;;;;;8.05;4.03;;;;;;;;;;6326278;22;20150;-93
2023/05/23 23:40:57;;;;;;;8.05;3.67;;;;;;;;;;6308467;22;20619;-93
2023/05/23 23:44:03;;;;;;;5.63;3.53;;;;;;;;;;6325696;22;20197;-93
2023/05/23 23:47:08;;;;;;;9.23;4.20;;;;;;;;;;6323336;22;20200;-93
2023/05/23 23:50:14;;;;;;;6.97;3.85;;;;;;;;;;6325344;22;20165;-93
2023/05/23 23:53:21;;;;;;;6.38;3.95;;;;;;;;;;6323721;22;20153;-90
2023/05/23 23:56:26;;;;;;;9.50;5.05;;;;;;;;;;6324943;22;20169;-91
2023/05/23 23:59:32;;;;;;;7.32;4.25;;;;;;;;;;6326044;22;20153;-93
